CMA CGM Pelleas — DFPH2 — position and weather

sailwx.info

Track history (hours):
 
Tides and Currents Weather Stations Pressure Air Temp Water Temp Dewpoint Dewpoint Depression Visibility Wind Speed Wind Dir Waves Ship Positions

CMA CGM Pelleas

Last reported at 2017-Oct-18 08:59 UTC. Time now 2017-Oct-20 16:06 UTC.
Position N 01°15' E 103°47'.

Length 350 m; draft 12.8 m.

Type: Cargo ship. MMSI: 218846000.

Date/timePositionNaut miles runAvg speedWind from/ knotsBaromVisibWave heightAir tempDewpointWater temp
2017-Oct-18 08:59N 01°15' E 103°47'1 1.0
2017-Oct-18 08:30N 01°15' E 103°47'0 0.0
2017-Oct-18 07:53N 01°15' E 103°47'0 0.0
2017-Oct-18 05:07N 01°15' E 103°47'0 0.0
2017-Oct-18 05:00N 01°15' E 103°47'0 0.0
2017-Oct-18 04:29N 01°15' E 103°47'0 0.0
2017-Oct-18 04:00N 01°15' E 103°47'0 0.0
2017-Oct-18 03:30N 01°15' E 103°47'0 0.0
2017-Oct-18 02:56N 01°15' E 103°47'0 0.0
2017-Oct-18 02:27N 01°15' E 103°47'0 0.0
2017-Oct-18 01:58N 01°15' E 103°47'2948.7
2017-Oct-18 01:22N 01°19' E 103°19'717.2
2017-Oct-18 00:58N 01°15' E 103°24'716.0
2017-Oct-18 00:30N 01°13' E 103°31'713.8
2017-Oct-18 00:00N 01°12' E 103°38'4 7.5
2017-Oct-17 23:30N 01°14' E 103°42'510.9
2017-Oct-17 23:00N 01°15' E 103°47'1 1.0
2017-Oct-17 22:28N 01°15' E 103°47'0 0.0
2017-Oct-17 21:52N 01°15' E 103°47'0 0.0
2017-Oct-17 21:22N 01°15' E 103°47'0 0.0
2017-Oct-17 20:59N 01°15' E 103°47'0 0.0
2017-Oct-17 20:28N 01°15' E 103°47'0 0.0
2017-Oct-17 19:58N 01°15' E 103°47'0 0.0
2017-Oct-17 19:30N 01°15' E 103°47'0 0.0
2017-Oct-17 18:59N 01°15' E 103°47'0 0.0
2017-Oct-17 18:30N 01°15' E 103°47'0 0.0
2017-Oct-17 18:01N 01°15' E 103°47'0 0.0
2017-Oct-17 17:30N 01°15' E 103°47'0 0.0
2017-Oct-17 17:00N 01°15' E 103°47'0 0.0
2017-Oct-17 16:30N 01°15' E 103°47'0 0.0
2017-Oct-17 15:59N 01°15' E 103°47'0 0.0
2017-Oct-17 15:30N 01°15' E 103°47'0 0.0
2017-Oct-17 15:00N 01°15' E 103°47'0 0.0
2017-Oct-17 14:30N 01°15' E 103°47'0 0.0
2017-Oct-17 14:00N 01°15' E 103°47'0 0.0
2017-Oct-17 13:30N 01°15' E 103°47'0 0.0
2017-Oct-17 13:00N 01°15' E 103°47'0 0.0
2017-Oct-17 12:30N 01°15' E 103°47'0 0.0
2017-Oct-17 12:00N 01°15' E 103°47'0 0.0
2017-Oct-17 11:30N 01°15' E 103°47'0 0.0
2017-Oct-17 11:00N 01°15' E 103°47'0 0.0
2017-Oct-17 10:30N 01°15' E 103°47'0 0.0
2017-Oct-17 09:59N 01°15' E 103°47'0 0.0
2017-Oct-17 09:30N 01°15' E 103°47'0 0.0
2017-Oct-17 09:00N 01°15' E 103°47'0 0.0
2017-Oct-17 08:30N 01°15' E 103°47'0 0.0
2017-Oct-17 08:00N 01°15' E 103°47'0 0.0
2017-Oct-17 07:30N 01°15' E 103°47'0 0.0
2017-Oct-17 07:00N 01°15' E 103°47'0 0.0
2017-Oct-17 06:31N 01°15' E 103°47'0 0.0
2017-Oct-17 06:00N 01°15' E 103°47'0 0.0
2017-Oct-17 05:30N 01°15' E 103°47'0 0.0
2017-Oct-17 05:00N 01°15' E 103°47'0 0.0
2017-Oct-17 04:30N 01°15' E 103°47'0 0.0
2017-Oct-17 04:01N 01°15' E 103°47'0 0.0
2017-Oct-17 03:31N 01°15' E 103°47'0 0.0
2017-Oct-17 03:01N 01°15' E 103°47'0 0.0
2017-Oct-17 02:30N 01°15' E 103°47'0 0.0
2017-Oct-17 02:00N 01°15' E 103°47'0 0.0
2017-Oct-17 01:30N 01°15' E 103°47'0 0.0
2017-Oct-17 01:01N 01°15' E 103°47'0 0.0
2017-Oct-17 00:30N 01°15' E 103°47'0 0.0
2017-Oct-17 00:00N 01°15' E 103°47'0 0.3
2017-Oct-16 23:30N 01°15' E 103°47'0 0.5
2017-Oct-16 23:01N 01°15' E 103°47'3 5.9
2017-Oct-16 22:31N 01°13' E 103°49'4 8.8
2017-Oct-16 22:00N 01°14' E 103°53'2 4.7
2017-Oct-16 21:30N 01°14' E 103°55'4 8.7
2017-Oct-16 21:00N 01°16' E 103°59'5 9.2
2017-Oct-16 20:31N 01°17' E 104°04'5 9.4
2017-Oct-16 20:00N 01°17' E 104°09'611.0
2017-Oct-16 19:30N 01°18' E 104°14'712.8
2017-Oct-16 18:59N 01°20' E 104°20'  
2017-Oct-10 23:20N 22°19' E 114°08'0 0.8
2017-Oct-10 22:59N 22°19' E 114°07'25415.4
2017-Oct-10 06:28N 23°44' E 118°27'918.8
2017-Oct-10 06:00N 23°50' E 118°34'918.6
2017-Oct-10 05:30N 23°57' E 118°41'1618.6
2017-Oct-10 04:40N 24°08' E 118°53'318.6
2017-Oct-10 04:30N 24°10' E 118°56'38016.9
2017-Oct-09 06:00N 26°36' E 125°24'21217.6 090 / 181017.010.8 32.0 30.8
2017-Oct-08 18:00N 27°36' E 129°12'   030 / 181018.010.8 27.0 31.2
Track history (hours):
 
Tides and Currents Weather Stations Pressure Air Temp Water Temp Dewpoint Dewpoint Depression Visibility Wind Speed Wind Dir Waves Ship Positions

CMA CGM Pelleas

Last reported at 2017-Oct-18 08:59 UTC. Time now 2017-Oct-20 16:06 UTC.
Position N 01°15' E 103°47'.

Length 350 m; draft 12.8 m.

Type: Cargo ship. MMSI: 218846000.

Date/timePositionNaut miles runAvg speedWind from/ knotsBaromVisibWave heightAir tempDewpointWater temp
2017-Oct-18 08:59N 01°15' E 103°47'1 1.0
2017-Oct-18 08:30N 01°15' E 103°47'0 0.0
2017-Oct-18 07:53N 01°15' E 103°47'0 0.0
2017-Oct-18 05:07N 01°15' E 103°47'0 0.0
2017-Oct-18 05:00N 01°15' E 103°47'0 0.0
2017-Oct-18 04:29N 01°15' E 103°47'0 0.0
2017-Oct-18 04:00N 01°15' E 103°47'0 0.0
2017-Oct-18 03:30N 01°15' E 103°47'0 0.0
2017-Oct-18 02:56N 01°15' E 103°47'0 0.0
2017-Oct-18 02:27N 01°15' E 103°47'0 0.0
2017-Oct-18 01:58N 01°15' E 103°47'2948.7
2017-Oct-18 01:22N 01°19' E 103°19'717.2
2017-Oct-18 00:58N 01°15' E 103°24'716.0
2017-Oct-18 00:30N 01°13' E 103°31'713.8
2017-Oct-18 00:00N 01°12' E 103°38'4 7.5
2017-Oct-17 23:30N 01°14' E 103°42'510.9
2017-Oct-17 23:00N 01°15' E 103°47'1 1.0
2017-Oct-17 22:28N 01°15' E 103°47'0 0.0
2017-Oct-17 21:52N 01°15' E 103°47'0 0.0
2017-Oct-17 21:22N 01°15' E 103°47'0 0.0
2017-Oct-17 20:59N 01°15' E 103°47'0 0.0
2017-Oct-17 20:28N 01°15' E 103°47'0 0.0
2017-Oct-17 19:58N 01°15' E 103°47'0 0.0
2017-Oct-17 19:30N 01°15' E 103°47'0 0.0
2017-Oct-17 18:59N 01°15' E 103°47'0 0.0
2017-Oct-17 18:30N 01°15' E 103°47'0 0.0
2017-Oct-17 18:01N 01°15' E 103°47'0 0.0
2017-Oct-17 17:30N 01°15' E 103°47'0 0.0
2017-Oct-17 17:00N 01°15' E 103°47'0 0.0
2017-Oct-17 16:30N 01°15' E 103°47'0 0.0
2017-Oct-17 15:59N 01°15' E 103°47'0 0.0
2017-Oct-17 15:30N 01°15' E 103°47'0 0.0
2017-Oct-17 15:00N 01°15' E 103°47'0 0.0
2017-Oct-17 14:30N 01°15' E 103°47'0 0.0
2017-Oct-17 14:00N 01°15' E 103°47'0 0.0
2017-Oct-17 13:30N 01°15' E 103°47'0 0.0
2017-Oct-17 13:00N 01°15' E 103°47'0 0.0
2017-Oct-17 12:30N 01°15' E 103°47'0 0.0
2017-Oct-17 12:00N 01°15' E 103°47'0 0.0
2017-Oct-17 11:30N 01°15' E 103°47'0 0.0
2017-Oct-17 11:00N 01°15' E 103°47'0 0.0
2017-Oct-17 10:30N 01°15' E 103°47'0 0.0
2017-Oct-17 09:59N 01°15' E 103°47'0 0.0
2017-Oct-17 09:30N 01°15' E 103°47'0 0.0
2017-Oct-17 09:00N 01°15' E 103°47'0 0.0
2017-Oct-17 08:30N 01°15' E 103°47'0 0.0
2017-Oct-17 08:00N 01°15' E 103°47'0 0.0
2017-Oct-17 07:30N 01°15' E 103°47'0 0.0
2017-Oct-17 07:00N 01°15' E 103°47'0 0.0
2017-Oct-17 06:31N 01°15' E 103°47'0 0.0
2017-Oct-17 06:00N 01°15' E 103°47'0 0.0
2017-Oct-17 05:30N 01°15' E 103°47'0 0.0
2017-Oct-17 05:00N 01°15' E 103°47'0 0.0
2017-Oct-17 04:30N 01°15' E 103°47'0 0.0
2017-Oct-17 04:01N 01°15' E 103°47'0 0.0
2017-Oct-17 03:31N 01°15' E 103°47'0 0.0
2017-Oct-17 03:01N 01°15' E 103°47'0 0.0
2017-Oct-17 02:30N 01°15' E 103°47'0 0.0
2017-Oct-17 02:00N 01°15' E 103°47'0 0.0
2017-Oct-17 01:30N 01°15' E 103°47'0 0.0
2017-Oct-17 01:01N 01°15' E 103°47'0 0.0
2017-Oct-17 00:30N 01°15' E 103°47'0 0.0
2017-Oct-17 00:00N 01°15' E 103°47'0 0.3
2017-Oct-16 23:30N 01°15' E 103°47'0 0.5
2017-Oct-16 23:01N 01°15' E 103°47'3 5.9
2017-Oct-16 22:31N 01°13' E 103°49'4 8.8
2017-Oct-16 22:00N 01°14' E 103°53'2 4.7
2017-Oct-16 21:30N 01°14' E 103°55'4 8.7
2017-Oct-16 21:00N 01°16' E 103°59'5 9.2
2017-Oct-16 20:31N 01°17' E 104°04'5 9.4
2017-Oct-16 20:00N 01°17' E 104°09'611.0
2017-Oct-16 19:30N 01°18' E 104°14'712.8
2017-Oct-16 18:59N 01°20' E 104°20'  
2017-Oct-10 23:20N 22°19' E 114°08'0 0.8
2017-Oct-10 22:59N 22°19' E 114°07'25415.4
2017-Oct-10 06:28N 23°44' E 118°27'918.8
2017-Oct-10 06:00N 23°50' E 118°34'918.6
2017-Oct-10 05:30N 23°57' E 118°41'1618.6
2017-Oct-10 04:40N 24°08' E 118°53'318.6
2017-Oct-10 04:30N 24°10' E 118°56'38016.9
2017-Oct-09 06:00N 26°36' E 125°24'21217.6 090 / 181017.010.8 32.0 30.8
2017-Oct-08 18:00N 27°36' E 129°12'   030 / 181018.010.8 27.0 31.2

Dump ship's entire track history